Aviation Digital Data Service (ADDS)

Output produced by TAFs form (2109 UTC 27 February 2015)
found at http://aviationweather.gov/adds/tafs/
 
KLND 271736Z 2718/2818 VRB04KT P6SM BKN010 
     FM271900 VRB04KT P6SM FEW012 BKN080 
     FM280700 34005KT P6SM VCSH BKN040 
     FM281000 VRB04KT 5SM -SN BKN025